sensor_id;sensor_type;location;lat;lon;timestamp;pressure;altitude;pressure_sealevel;temperature;humidity
42727;BME280;28372;56.832;60.658;2023-11-19T00:00:21;97780.13;;;-1.86;42.54
42727;BME280;28372;56.832;60.658;2023-11-19T00:02:55;97773.59;;;-1.94;41.37
42727;BME280;28372;56.832;60.658;2023-11-19T00:05:25;97783.03;;;-2.21;41.34
42727;BME280;28372;56.832;60.658;2023-11-19T00:08:03;97786.53;;;-2.26;41.39
42727;BME280;28372;56.832;60.658;2023-11-19T00:10:32;97774.50;;;-2.18;42.45
42727;BME280;28372;56.832;60.658;2023-11-19T00:13:08;97787.53;;;-2.21;41.45
42727;BME280;28372;56.832;60.658;2023-11-19T00:15:41;97758.63;;;-2.56;41.12
42727;BME280;28372;56.832;60.658;2023-11-19T00:18:08;97777.81;;;-2.45;41.33
42727;BME280;28372;56.832;60.658;2023-11-19T00:20:37;97776.56;;;-2.53;40.68
42727;BME280;28372;56.832;60.658;2023-11-19T00:23:05;97771.28;;;-2.72;41.08
42727;BME280;28372;56.832;60.658;2023-11-19T00:25:33;97792.66;;;-2.68;40.94
42727;BME280;28372;56.832;60.658;2023-11-19T00:28:00;97788.66;;;-2.66;41.89
42727;BME280;28372;56.832;60.658;2023-11-19T00:30:28;97778.38;;;-2.48;42.49
42727;BME280;28372;56.832;60.658;2023-11-19T00:32:59;97784.09;;;-2.60;41.80
42727;BME280;28372;56.832;60.658;2023-11-19T00:35:29;97780.88;;;-2.57;42.96
42727;BME280;28372;56.832;60.658;2023-11-19T00:38:02;97781.69;;;-2.56;42.67
42727;BME280;28372;56.832;60.658;2023-11-19T00:40:31;97792.56;;;-2.82;42.54
42727;BME280;28372;56.832;60.658;2023-11-19T00:42:59;97774.31;;;-2.84;43.63
42727;BME280;28372;56.832;60.658;2023-11-19T00:45:30;97788.00;;;-2.77;43.90
42727;BME280;28372;56.832;60.658;2023-11-19T00:48:00;97791.69;;;-2.97;47.16
42727;BME280;28372;56.832;60.658;2023-11-19T00:50:33;97792.97;;;-2.94;47.31
42727;BME280;28372;56.832;60.658;2023-11-19T00:53:04;97802.50;;;-2.93;45.71
42727;BME280;28372;56.832;60.658;2023-11-19T00:55:35;97788.56;;;-2.80;46.12
42727;BME280;28372;56.832;60.658;2023-11-19T00:58:13;97808.56;;;-2.68;45.78
42727;BME280;28372;56.832;60.658;2023-11-19T01:00:40;97809.84;;;-2.66;46.64
42727;BME280;28372;56.832;60.658;2023-11-19T01:03:08;97816.50;;;-2.68;53.42
42727;BME280;28372;56.832;60.658;2023-11-19T01:05:36;97812.25;;;-2.69;57.36
42727;BME280;28372;56.832;60.658;2023-11-19T01:08:04;97805.13;;;-2.69;56.38
42727;BME280;28372;56.832;60.658;2023-11-19T01:10:32;97810.25;;;-2.78;57.85
42727;BME280;28372;56.832;60.658;2023-11-19T01:13:01;97801.53;;;-2.78;59.91
42727;BME280;28372;56.832;60.658;2023-11-19T01:15:31;97801.91;;;-2.66;59.15
42727;BME280;28372;56.832;60.658;2023-11-19T01:17:59;97781.94;;;-2.77;62.04
42727;BME280;28372;56.832;60.658;2023-11-19T01:20:26;97806.72;;;-2.68;62.27
42727;BME280;28372;56.832;60.658;2023-11-19T01:22:55;97810.28;;;-2.59;61.13
42727;BME280;28372;56.832;60.658;2023-11-19T01:25:23;97806.97;;;-2.69;59.91
42727;BME280;28372;56.832;60.658;2023-11-19T01:27:51;97819.00;;;-2.77;59.35
42727;BME280;28372;56.832;60.658;2023-11-19T01:30:19;97814.28;;;-2.61;59.26
42727;BME280;28372;56.832;60.658;2023-11-19T01:32:49;97821.59;;;-2.72;59.03
42727;BME280;28372;56.832;60.658;2023-11-19T01:35:17;97815.66;;;-2.64;61.13
42727;BME280;28372;56.832;60.658;2023-11-19T01:37:44;97819.28;;;-2.60;60.05
42727;BME280;28372;56.832;60.658;2023-11-19T01:40:12;97808.59;;;-2.49;62.16
42727;BME280;28372;56.832;60.658;2023-11-19T01:42:40;97820.00;;;-2.54;59.57
42727;BME280;28372;56.832;60.658;2023-11-19T01:45:08;97806.97;;;-2.69;57.13
42727;BME280;28372;56.832;60.658;2023-11-19T01:47:38;97818.38;;;-2.69;57.02
42727;BME280;28372;56.832;60.658;2023-11-19T01:50:06;97818.16;;;-2.53;60.84
42727;BME280;28372;56.832;60.658;2023-11-19T01:52:36;97819.47;;;-2.51;60.85
42727;BME280;28372;56.832;60.658;2023-11-19T01:55:06;97825.63;;;-2.36;59.68
42727;BME280;28372;56.832;60.658;2023-11-19T01:57:36;97820.75;;;-2.29;58.78
42727;BME280;28372;56.832;60.658;2023-11-19T02:00:08;97817.25;;;-2.44;56.69
42727;BME280;28372;56.832;60.658;2023-11-19T02:02:40;97824.09;;;-1.85;55.52
42727;BME280;28372;56.832;60.658;2023-11-19T02:05:10;97814.97;;;-2.12;58.50
42727;BME280;28372;56.832;60.658;2023-11-19T02:07:38;97829.06;;;-2.17;57.83
42727;BME280;28372;56.832;60.658;2023-11-19T02:10:06;97829.28;;;-2.13;60.29
42727;BME280;28372;56.832;60.658;2023-11-19T02:12:41;97823.78;;;-2.17;58.58
42727;BME280;28372;56.832;60.658;2023-11-19T02:15:12;97826.13;;;-2.15;59.89
42727;BME280;28372;56.832;60.658;2023-11-19T02:17:39;97797.91;;;-2.25;58.90
42727;BME280;28372;56.832;60.658;2023-11-19T02:20:08;97829.66;;;-2.20;56.01
42727;BME280;28372;56.832;60.658;2023-11-19T02:22:36;97821.34;;;-2.32;52.90
42727;BME280;28372;56.832;60.658;2023-11-19T02:25:07;97823.72;;;-2.12;52.19
42727;BME280;28372;56.832;60.658;2023-11-19T02:27:56;97824.13;;;-2.04;52.53
42727;BME280;28372;56.832;60.658;2023-11-19T02:30:27;97832.44;;;-2.11;49.61
42727;BME280;28372;56.832;60.658;2023-11-19T02:32:56;97847.09;;;-2.19;50.45
42727;BME280;28372;56.832;60.658;2023-11-19T02:35:26;97838.00;;;-2.32;50.23
42727;BME280;28372;56.832;60.658;2023-11-19T02:37:57;97845.16;;;-2.13;54.48
42727;BME280;28372;56.832;60.658;2023-11-19T02:40:27;97846.97;;;-2.09;51.45
42727;BME280;28372;56.832;60.658;2023-11-19T02:42:54;97844.03;;;-2.07;50.82
42727;BME280;28372;56.832;60.658;2023-11-19T02:45:25;97857.94;;;-2.15;50.81
42727;BME280;28372;56.832;60.658;2023-11-19T02:47:54;97849.31;;;-2.45;56.01
42727;BME280;28372;56.832;60.658;2023-11-19T02:50:24;97838.53;;;-2.54;59.02
42727;BME280;28372;56.832;60.658;2023-11-19T02:52:54;97836.50;;;-2.81;57.34
42727;BME280;28372;56.832;60.658;2023-11-19T02:55:24;97850.69;;;-2.72;56.76
42727;BME280;28372;56.832;60.658;2023-11-19T02:57:52;97844.59;;;-2.72;57.26
42727;BME280;28372;56.832;60.658;2023-11-19T03:00:22;97841.47;;;-2.74;56.38
42727;BME280;28372;56.832;60.658;2023-11-19T03:02:52;97856.50;;;-2.70;52.44
42727;BME280;28372;56.832;60.658;2023-11-19T03:05:48;97845.13;;;-2.51;51.40
42727;BME280;28372;56.832;60.658;2023-11-19T03:08:16;97841.56;;;-2.61;49.37
42727;BME280;28372;56.832;60.658;2023-11-19T03:10:47;97837.63;;;-2.44;48.65
42727;BME280;28372;56.832;60.658;2023-11-19T03:13:15;97846.75;;;-2.31;46.93
42727;BME280;28372;56.832;60.658;2023-11-19T03:15:44;97845.88;;;-2.46;45.96
42727;BME280;28372;56.832;60.658;2023-11-19T03:18:12;97840.06;;;-2.48;47.02
42727;BME280;28372;56.832;60.658;2023-11-19T03:20:40;97845.56;;;-2.44;46.28
42727;BME280;28372;56.832;60.658;2023-11-19T03:23:08;97849.75;;;-2.38;46.58
42727;BME280;28372;56.832;60.658;2023-11-19T03:25:35;97841.38;;;-2.26;45.54
42727;BME280;28372;56.832;60.658;2023-11-19T03:28:04;97832.63;;;-2.46;44.75
42727;BME280;28372;56.832;60.658;2023-11-19T03:30:32;97840.66;;;-2.32;44.02
42727;BME280;28372;56.832;60.658;2023-11-19T03:33:01;97849.84;;;-2.24;46.02
42727;BME280;28372;56.832;60.658;2023-11-19T03:35:30;97854.50;;;-2.16;48.60
42727;BME280;28372;56.832;60.658;2023-11-19T03:37:58;97848.25;;;-2.25;44.91
42727;BME280;28372;56.832;60.658;2023-11-19T03:40:25;97855.13;;;-2.24;45.93
42727;BME280;28372;56.832;60.658;2023-11-19T03:42:53;97850.91;;;-2.25;44.89
42727;BME280;28372;56.832;60.658;2023-11-19T03:45:21;97856.34;;;-2.16;46.85
42727;BME280;28372;56.832;60.658;2023-11-19T03:47:48;97860.00;;;-2.12;45.02
42727;BME280;28372;56.832;60.658;2023-11-19T03:50:17;97870.88;;;-2.14;44.27
42727;BME280;28372;56.832;60.658;2023-11-19T03:52:48;97863.47;;;-2.12;50.22
42727;BME280;28372;56.832;60.658;2023-11-19T03:55:15;97861.00;;;-2.08;49.91
42727;BME280;28372;56.832;60.658;2023-11-19T03:57:44;97861.53;;;-2.06;48.64
42727;BME280;28372;56.832;60.658;2023-11-19T04:00:12;97875.50;;;-2.00;46.49
42727;BME280;28372;56.832;60.658;2023-11-19T04:02:41;97870.97;;;-2.00;45.74
42727;BME280;28372;56.832;60.658;2023-11-19T04:05:09;97859.00;;;-1.97;44.73
42727;BME280;28372;56.832;60.658;2023-11-19T04:07:37;97858.78;;;-2.01;44.28
42727;BME280;28372;56.832;60.658;2023-11-19T04:10:05;97860.31;;;-1.95;44.72
42727;BME280;28372;56.832;60.658;2023-11-19T04:12:33;97871.25;;;-1.82;44.58
42727;BME280;28372;56.832;60.658;2023-11-19T04:15:01;97857.94;;;-1.96;42.74
42727;BME280;28372;56.832;60.658;2023-11-19T04:17:30;97871.41;;;-1.93;43.48
42727;BME280;28372;56.832;60.658;2023-11-19T04:19:58;97869.69;;;-2.21;44.36
42727;BME280;28372;56.832;60.658;2023-11-19T04:22:29;97870.81;;;-2.09;43.90
42727;BME280;28372;56.832;60.658;2023-11-19T04:24:57;97866.25;;;-2.03;43.98
42727;BME280;28372;56.832;60.658;2023-11-19T04:27:25;97858.78;;;-2.01;43.52
42727;BME280;28372;56.832;60.658;2023-11-19T04:29:55;97872.09;;;-1.87;44.25
42727;BME280;28372;56.832;60.658;2023-11-19T04:32:23;97863.78;;;-1.80;45.56
42727;BME280;28372;56.832;60.658;2023-11-19T04:34:53;97872.47;;;-1.75;44.40
42727;BME280;28372;56.832;60.658;2023-11-19T04:37:20;97870.03;;;-1.71;44.36
42727;BME280;28372;56.832;60.658;2023-11-19T04:39:48;97876.81;;;-1.65;43.84
42727;BME280;28372;56.832;60.658;2023-11-19T04:42:25;97874.09;;;-1.60;44.75
42727;BME280;28372;56.832;60.658;2023-11-19T04:44:59;97880.53;;;-1.47;44.57
42727;BME280;28372;56.832;60.658;2023-11-19T04:47:46;97878.88;;;-1.43;43.80
42727;BME280;28372;56.832;60.658;2023-11-19T04:50:13;97867.38;;;-1.38;44.41
42727;BME280;28372;56.832;60.658;2023-11-19T04:52:48;97879.41;;;-1.27;43.70
42727;BME280;28372;56.832;60.658;2023-11-19T04:55:44;97877.66;;;-1.17;44.94
42727;BME280;28372;56.832;60.658;2023-11-19T04:58:14;97878.97;;;-1.01;47.24
42727;BME280;28372;56.832;60.658;2023-11-19T05:00:43;97884.75;;;-0.99;50.71
42727;BME280;28372;56.832;60.658;2023-11-19T05:03:21;97901.72;;;-0.81;55.27
42727;BME280;28372;56.832;60.658;2023-11-19T05:06:11;97905.94;;;-0.80;49.72
42727;BME280;28372;56.832;60.658;2023-11-19T05:08:38;97905.44;;;-0.68;46.15
42727;BME280;28372;56.832;60.658;2023-11-19T05:11:06;97897.28;;;-0.58;44.45
42727;BME280;28372;56.832;60.658;2023-11-19T05:13:33;97911.75;;;-0.36;42.00
42727;BME280;28372;56.832;60.658;2023-11-19T05:16:01;97900.69;;;-0.15;41.04
42727;BME280;28372;56.832;60.658;2023-11-19T05:18:29;97916.09;;;0.24;40.36
42727;BME280;28372;56.832;60.658;2023-11-19T05:21:00;97923.19;;;0.74;39.01
42727;BME280;28372;56.832;60.658;2023-11-19T05:23:38;97917.00;;;1.19;39.52
42727;BME280;28372;56.832;60.658;2023-11-19T05:26:06;97914.66;;;1.49;38.81
42727;BME280;28372;56.832;60.658;2023-11-19T05:28:38;97919.16;;;1.88;37.81
42727;BME280;28372;56.832;60.658;2023-11-19T05:31:06;97926.28;;;2.54;37.22
42727;BME280;28372;56.832;60.658;2023-11-19T05:33:34;97924.66;;;2.88;38.10
42727;BME280;28372;56.832;60.658;2023-11-19T05:36:03;97902.78;;;3.04;36.01
42727;BME280;28372;56.832;60.658;2023-11-19T05:38:31;97902.41;;;3.62;36.11
42727;BME280;28372;56.832;60.658;2023-11-19T05:40:59;97928.88;;;4.14;35.98
42727;BME280;28372;56.832;60.658;2023-11-19T05:43:26;97918.50;;;4.55;35.22
42727;BME280;28372;56.832;60.658;2023-11-19T05:45:54;97943.03;;;5.11;32.59
42727;BME280;28372;56.832;60.658;2023-11-19T05:48:22;97937.63;;;5.45;32.70
42727;BME280;28372;56.832;60.658;2023-11-19T05:50:50;97937.19;;;5.92;32.54
42727;BME280;28372;56.832;60.658;2023-11-19T05:53:17;97940.94;;;6.41;29.90
42727;BME280;28372;56.832;60.658;2023-11-19T05:55:45;97938.81;;;6.46;30.00
42727;BME280;28372;56.832;60.658;2023-11-19T05:58:26;97938.28;;;6.69;29.84
42727;BME280;28372;56.832;60.658;2023-11-19T06:00:57;97939.22;;;6.89;30.18
42727;BME280;28372;56.832;60.658;2023-11-19T06:03:24;97946.16;;;7.34;28.23
42727;BME280;28372;56.832;60.658;2023-11-19T06:05:52;97950.44;;;7.67;28.89
42727;BME280;28372;56.832;60.658;2023-11-19T06:08:21;97952.84;;;7.88;28.76
42727;BME280;28372;56.832;60.658;2023-11-19T06:10:49;97952.44;;;8.22;27.10
42727;BME280;28372;56.832;60.658;2023-11-19T06:13:18;97947.06;;;8.41;26.94
42727;BME280;28372;56.832;60.658;2023-11-19T06:15:50;97954.81;;;8.43;28.37
42727;BME280;28372;56.832;60.658;2023-11-19T06:18:18;97950.97;;;8.60;26.65
42727;BME280;28372;56.832;60.658;2023-11-19T06:20:47;97959.38;;;8.23;27.75
42727;BME280;28372;56.832;60.658;2023-11-19T06:23:17;97962.72;;;8.52;25.48
42727;BME280;28372;56.832;60.658;2023-11-19T06:25:45;97968.13;;;8.71;25.21
42727;BME280;28372;56.832;60.658;2023-11-19T06:28:13;97983.03;;;8.85;24.92
42727;BME280;28372;56.832;60.658;2023-11-19T06:30:41;97976.72;;;8.97;25.16
42727;BME280;28372;56.832;60.658;2023-11-19T06:33:12;97984.97;;;9.04;24.35
42727;BME280;28372;56.832;60.658;2023-11-19T06:35:40;97975.78;;;9.08;23.88
42727;BME280;28372;56.832;60.658;2023-11-19T06:38:08;97993.91;;;9.08;23.56
42727;BME280;28372;56.832;60.658;2023-11-19T06:40:36;97997.72;;;9.26;24.68
42727;BME280;28372;56.832;60.658;2023-11-19T06:43:04;97992.59;;;9.21;24.03
42727;BME280;28372;56.832;60.658;2023-11-19T06:45:32;97994.81;;;8.96;23.35
42727;BME280;28372;56.832;60.658;2023-11-19T06:48:03;97987.16;;;8.79;23.86
42727;BME280;28372;56.832;60.658;2023-11-19T06:50:32;97996.22;;;8.51;24.07
42727;BME280;28372;56.832;60.658;2023-11-19T06:53:00;97993.78;;;8.30;23.77
42727;BME280;28372;56.832;60.658;2023-11-19T06:55:28;97991.03;;;8.10;24.86
42727;BME280;28372;56.832;60.658;2023-11-19T06:57:55;97996.44;;;8.10;24.32
42727;BME280;28372;56.832;60.658;2023-11-19T07:00:23;98004.19;;;7.96;24.76
42727;BME280;28372;56.832;60.658;2023-11-19T07:02:51;97992.22;;;7.77;25.01
42727;BME280;28372;56.832;60.658;2023-11-19T07:05:19;98014.16;;;7.63;24.83
42727;BME280;28372;56.832;60.658;2023-11-19T07:07:46;98016.59;;;7.52;25.41
42727;BME280;28372;56.832;60.658;2023-11-19T07:10:14;98017.34;;;7.37;25.22
42727;BME280;28372;56.832;60.658;2023-11-19T07:15:37;98028.72;;;7.18;25.54
42727;BME280;28372;56.832;60.658;2023-11-19T07:18:05;98013.41;;;6.90;25.69
42727;BME280;28372;56.832;60.658;2023-11-19T07:20:55;98022.75;;;6.68;25.86
42727;BME280;28372;56.832;60.658;2023-11-19T07:23:22;98026.69;;;6.58;25.77
42727;BME280;28372;56.832;60.658;2023-11-19T07:25:50;98029.50;;;6.37;25.83
42727;BME280;28372;56.832;60.658;2023-11-19T07:28:20;98024.13;;;6.00;26.86
42727;BME280;28372;56.832;60.658;2023-11-19T07:30:54;98020.06;;;5.81;27.58
42727;BME280;28372;56.832;60.658;2023-11-19T07:33:23;98023.25;;;5.62;26.88
42727;BME280;28372;56.832;60.658;2023-11-19T07:35:51;98021.31;;;5.38;27.29
42727;BME280;28372;56.832;60.658;2023-11-19T07:38:19;98026.19;;;5.24;28.17
42727;BME280;28372;56.832;60.658;2023-11-19T07:40:46;98020.44;;;5.13;28.30
42727;BME280;28372;56.832;60.658;2023-11-19T07:43:18;98027.31;;;5.02;28.46
42727;BME280;28372;56.832;60.658;2023-11-19T07:45:45;98023.47;;;4.90;28.52
42727;BME280;28372;56.832;60.658;2023-11-19T07:48:13;98025.13;;;4.83;28.25
42727;BME280;28372;56.832;60.658;2023-11-19T07:50:43;98016.09;;;4.66;28.95
42727;BME280;28372;56.832;60.658;2023-11-19T07:53:11;98032.69;;;4.59;30.19
42727;BME280;28372;56.832;60.658;2023-11-19T07:55:40;98042.66;;;4.50;31.06
42727;BME280;28372;56.832;60.658;2023-11-19T07:58:13;98029.00;;;4.43;31.16
42727;BME280;28372;56.832;60.658;2023-11-19T08:00:46;98047.31;;;4.41;30.20
42727;BME280;28372;56.832;60.658;2023-11-19T08:03:33;98011.53;;;3.86;30.53
42727;BME280;28372;56.832;60.658;2023-11-19T08:06:03;98050.59;;;4.17;31.33
42727;BME280;28372;56.832;60.658;2023-11-19T08:08:34;98053.66;;;3.98;30.81
42727;BME280;28372;56.832;60.658;2023-11-19T08:11:05;98050.72;;;3.73;31.02
42727;BME280;28372;56.832;60.658;2023-11-19T08:13:38;98066.22;;;3.50;31.59
42727;BME280;28372;56.832;60.658;2023-11-19T08:16:07;98064.50;;;3.36;32.04
42727;BME280;28372;56.832;60.658;2023-11-19T08:18:36;98054.75;;;3.14;33.02
42727;BME280;28372;56.832;60.658;2023-11-19T08:21:04;98045.66;;;3.06;31.92
42727;BME280;28372;56.832;60.658;2023-11-19T08:23:32;98064.84;;;3.08;32.44
42727;BME280;28372;56.832;60.658;2023-11-19T08:26:00;98063.09;;;3.04;32.51
42727;BME280;28372;56.832;60.658;2023-11-19T08:28:27;98055.09;;;2.95;32.48
42727;BME280;28372;56.832;60.658;2023-11-19T08:30:55;98068.16;;;2.88;32.24
42727;BME280;28372;56.832;60.658;2023-11-19T08:33:23;98066.66;;;2.47;32.68
42727;BME280;28372;56.832;60.658;2023-11-19T08:35:50;98076.22;;;2.39;33.24
42727;BME280;28372;56.832;60.658;2023-11-19T08:38:18;98070.22;;;2.25;32.69
42727;BME280;28372;56.832;60.658;2023-11-19T08:40:49;98073.34;;;2.18;34.05
42727;BME280;28372;56.832;60.658;2023-11-19T08:43:27;98096.41;;;2.22;34.13
42727;BME280;28372;56.832;60.658;2023-11-19T08:46:30;98073.09;;;1.97;33.01
42727;BME280;28372;56.832;60.658;2023-11-19T08:48:58;98079.00;;;1.85;33.30
42727;BME280;28372;56.832;60.658;2023-11-19T08:51:25;98078.34;;;1.79;33.36
42727;BME280;28372;56.832;60.658;2023-11-19T08:53:53;98066.31;;;1.59;33.25
42727;BME280;28372;56.832;60.658;2023-11-19T08:56:21;98074.66;;;1.66;33.42
42727;BME280;28372;56.832;60.658;2023-11-19T08:58:48;98064.38;;;1.51;33.26
42727;BME280;28372;56.832;60.658;2023-11-19T09:01:16;98071.09;;;1.48;33.22
42727;BME280;28372;56.832;60.658;2023-11-19T09:03:44;98093.34;;;1.44;32.90
42727;BME280;28372;56.832;60.658;2023-11-19T09:06:12;98078.44;;;1.43;33.60
42727;BME280;28372;56.832;60.658;2023-11-19T09:08:39;98076.16;;;1.27;33.59
42727;BME280;28372;56.832;60.658;2023-11-19T09:11:07;98070.50;;;1.06;32.98
42727;BME280;28372;56.832;60.658;2023-11-19T09:13:36;98079.44;;;0.88;33.67
42727;BME280;28372;56.832;60.658;2023-11-19T09:16:04;98066.47;;;0.72;33.54
42727;BME280;28372;56.832;60.658;2023-11-19T09:18:32;98085.56;;;0.74;33.75
42727;BME280;28372;56.832;60.658;2023-11-19T09:21:00;98086.09;;;0.62;33.95
42727;BME280;28372;56.832;60.658;2023-11-19T09:23:27;98086.88;;;0.63;34.09
42727;BME280;28372;56.832;60.658;2023-11-19T09:25:58;98087.19;;;0.61;34.65
42727;BME280;28372;56.832;60.658;2023-11-19T09:28:25;98090.03;;;0.79;34.69
42727;BME280;28372;56.832;60.658;2023-11-19T09:30:54;98085.28;;;0.76;35.04
42727;BME280;28372;56.832;60.658;2023-11-19T09:33:21;98087.94;;;0.76;34.75
42727;BME280;28372;56.832;60.658;2023-11-19T09:36:17;98083.44;;;0.99;35.17
42727;BME280;28372;56.832;60.658;2023-11-19T09:38:46;98080.56;;;0.73;34.69
42727;BME280;28372;56.832;60.658;2023-11-19T09:41:14;98085.56;;;0.74;35.02
42727;BME280;28372;56.832;60.658;2023-11-19T09:43:42;98089.34;;;0.73;34.57
42727;BME280;28372;56.832;60.658;2023-11-19T09:46:10;98085.03;;;0.63;34.61
42727;BME280;28372;56.832;60.658;2023-11-19T09:48:39;98098.13;;;0.74;35.63
42727;BME280;28372;56.832;60.658;2023-11-19T09:51:11;98103.50;;;0.82;34.96
42727;BME280;28372;56.832;60.658;2023-11-19T09:53:39;98093.84;;;0.87;36.75
42727;BME280;28372;56.832;60.658;2023-11-19T09:56:07;98095.78;;;0.95;37.51
42727;BME280;28372;56.832;60.658;2023-11-19T09:58:38;98089.22;;;0.78;43.07
42727;BME280;28372;56.832;60.658;2023-11-19T10:01:07;98092.31;;;0.72;42.31
42727;BME280;28372;56.832;60.658;2023-11-19T10:03:41;98096.34;;;0.69;44.88
42727;BME280;28372;56.832;60.658;2023-11-19T10:06:15;98058.75;;;0.20;39.94
42727;BME280;28372;56.832;60.658;2023-11-19T10:08:44;98060.72;;;0.14;39.26
42727;BME280;28372;56.832;60.658;2023-11-19T10:11:15;98054.41;;;0.10;37.79
42727;BME280;28372;56.832;60.658;2023-11-19T10:13:43;98103.84;;;0.25;36.79
42727;BME280;28372;56.832;60.658;2023-11-19T10:16:12;98114.78;;;0.24;35.43
42727;BME280;28372;56.832;60.658;2023-11-19T10:18:47;98114.69;;;0.29;35.94
42727;BME280;28372;56.832;60.658;2023-11-19T10:21:17;98095.69;;;0.08;35.25
42727;BME280;28372;56.832;60.658;2023-11-19T10:23:55;98118.84;;;0.21;35.80
42727;BME280;28372;56.832;60.658;2023-11-19T10:26:27;98124.53;;;0.01;36.01
42727;BME280;28372;56.832;60.658;2023-11-19T10:28:55;98130.47;;;0.11;35.80
42727;BME280;28372;56.832;60.658;2023-11-19T10:31:23;98135.66;;;0.03;36.36
42727;BME280;28372;56.832;60.658;2023-11-19T10:33:53;98131.91;;;-0.10;36.84
42727;BME280;28372;56.832;60.658;2023-11-19T10:36:21;98122.16;;;-0.15;38.03
42727;BME280;28372;56.832;60.658;2023-11-19T10:38:53;98134.06;;;-0.12;38.06
42727;BME280;28372;56.832;60.658;2023-11-19T10:41:28;98140.88;;;-0.06;38.85
42727;BME280;28372;56.832;60.658;2023-11-19T10:43:57;98140.94;;;-0.25;38.77
42727;BME280;28372;56.832;60.658;2023-11-19T10:46:41;98137.50;;;-0.12;39.61
42727;BME280;28372;56.832;60.658;2023-11-19T10:49:09;98127.16;;;-0.46;38.77
42727;BME280;28372;56.832;60.658;2023-11-19T10:51:45;98150.06;;;-0.31;39.97
42727;BME280;28372;56.832;60.658;2023-11-19T10:54:19;98146.22;;;-0.39;39.55
42727;BME280;28372;56.832;60.658;2023-11-19T10:56:55;98139.50;;;-0.37;39.47
42727;BME280;28372;56.832;60.658;2023-11-19T10:59:25;98141.31;;;-0.51;38.73
42727;BME280;28372;56.832;60.658;2023-11-19T11:02:03;98115.69;;;-0.61;38.81
42727;BME280;28372;56.832;60.658;2023-11-19T11:04:39;98152.38;;;-0.44;39.83
42727;BME280;28372;56.832;60.658;2023-11-19T11:07:09;98166.47;;;-0.43;38.11
42727;BME280;28372;56.832;60.658;2023-11-19T11:09:38;98148.50;;;-0.52;38.21
42727;BME280;28372;56.832;60.658;2023-11-19T11:12:09;98164.16;;;-0.69;38.70
42727;BME280;28372;56.832;60.658;2023-11-19T11:14:38;98148.97;;;-0.82;38.11
42727;BME280;28372;56.832;60.658;2023-11-19T11:17:09;98164.75;;;-0.72;38.60
42727;BME280;28372;56.832;60.658;2023-11-19T11:19:39;98148.53;;;-0.90;37.66
42727;BME280;28372;56.832;60.658;2023-11-19T11:22:10;98171.50;;;-0.80;38.30
42727;BME280;28372;56.832;60.658;2023-11-19T11:28:06;98185.28;;;-0.59;38.09
42727;BME280;28372;56.832;60.658;2023-11-19T11:31:08;98188.09;;;-0.50;38.14
42727;BME280;28372;56.832;60.658;2023-11-19T11:36:31;98181.25;;;-0.56;37.58
42727;BME280;28372;56.832;60.658;2023-11-19T11:39:02;98182.41;;;-0.81;37.99
42727;BME280;28372;56.832;60.658;2023-11-19T11:50:24;98191.34;;;-1.15;39.83
42727;BME280;28372;56.832;60.658;2023-11-19T11:57:57;98197.22;;;-1.18;40.91
42727;BME280;28372;56.832;60.658;2023-11-19T12:00:30;98208.78;;;-1.09;40.23
42727;BME280;28372;56.832;60.658;2023-11-19T12:03:00;98201.94;;;-1.15;40.50
42727;BME280;28372;56.832;60.658;2023-11-19T12:05:29;98213.19;;;-1.24;40.52
42727;BME280;28372;56.832;60.658;2023-11-19T12:08:01;98224.78;;;-1.14;40.00
42727;BME280;28372;56.832;60.658;2023-11-19T12:10:30;98202.28;;;-1.22;39.53
42727;BME280;28372;56.832;60.658;2023-11-19T12:13:01;98224.53;;;-1.18;38.72
42727;BME280;28372;56.832;60.658;2023-11-19T12:18:31;98220.69;;;-1.07;39.96
42727;BME280;28372;56.832;60.658;2023-11-19T12:21:00;98213.31;;;-1.34;40.50
42727;BME280;28372;56.832;60.658;2023-11-19T12:23:31;98224.19;;;-1.11;39.99
42727;BME280;28372;56.832;60.658;2023-11-19T12:25:59;98213.91;;;-1.18;39.72
42727;BME280;28372;56.832;60.658;2023-11-19T12:28:27;98207.97;;;-1.29;39.16
42727;BME280;28372;56.832;60.658;2023-11-19T12:31:07;98208.84;;;-1.14;41.71
42727;BME280;28372;56.832;60.658;2023-11-19T12:33:37;98205.88;;;-1.32;39.86
42727;BME280;28372;56.832;60.658;2023-11-19T12:36:06;98208.72;;;-1.28;40.94
42727;BME280;28372;56.832;60.658;2023-11-19T12:38:35;98213.38;;;-1.15;39.72
42727;BME280;28372;56.832;60.658;2023-11-19T12:41:07;98207.97;;;-1.10;40.59
42727;BME280;28372;56.832;60.658;2023-11-19T12:43:35;98215.47;;;-1.12;39.32
42727;BME280;28372;56.832;60.658;2023-11-19T12:46:18;98220.88;;;-0.98;41.88
42727;BME280;28372;56.832;60.658;2023-11-19T12:48:48;98222.44;;;-1.21;40.88
42727;BME280;28372;56.832;60.658;2023-11-19T12:51:17;98225.69;;;-1.24;39.18
42727;BME280;28372;56.832;60.658;2023-11-19T12:53:49;98212.41;;;-1.24;40.78
42727;BME280;28372;56.832;60.658;2023-11-19T12:56:22;98225.72;;;-1.29;40.18
42727;BME280;28372;56.832;60.658;2023-11-19T12:58:50;98205.97;;;-1.42;41.47
42727;BME280;28372;56.832;60.658;2023-11-19T13:01:19;98227.91;;;-1.12;41.68
42727;BME280;28372;56.832;60.658;2023-11-19T13:03:48;98215.06;;;-1.24;41.98
42727;BME280;28372;56.832;60.658;2023-11-19T13:06:19;98216.97;;;-1.30;41.46
42727;BME280;28372;56.832;60.658;2023-11-19T13:08:51;98225.22;;;-1.07;41.49
42727;BME280;28372;56.832;60.658;2023-11-19T13:11:33;98232.06;;;-1.01;43.82
42727;BME280;28372;56.832;60.658;2023-11-19T13:14:05;98225.50;;;-1.09;42.07
42727;BME280;28372;56.832;60.658;2023-11-19T13:16:37;98217.38;;;-1.17;41.99
42727;BME280;28372;56.832;60.658;2023-11-19T13:19:06;98233.53;;;-1.38;42.02
42727;BME280;28372;56.832;60.658;2023-11-19T13:21:34;98233.34;;;-1.23;42.37
42727;BME280;28372;56.832;60.658;2023-11-19T13:24:03;98227.25;;;-1.23;41.33
42727;BME280;28372;56.832;60.658;2023-11-19T13:26:31;98224.09;;;-1.25;42.19
42727;BME280;28372;56.832;60.658;2023-11-19T13:28:59;98215.34;;;-1.26;41.54
42727;BME280;28372;56.832;60.658;2023-11-19T13:31:28;98225.38;;;-1.23;42.54
42727;BME280;28372;56.832;60.658;2023-11-19T13:34:00;98222.53;;;-1.26;42.06
42727;BME280;28372;56.832;60.658;2023-11-19T13:36:28;98216.53;;;-1.37;41.60